リヤド の空港の天気 - METARとTAF

キング・ハーリド国際空港(リヤド) ( OERK / RUH ) - サウジアラビア リヤド
飛行場実況気象(Metar)
観測時間01/21 20:00 AST (01/21 17:00 UTC)
風向・風速南東 2m/s
視程7000m
天気現象
なし
気温14℃
湿度29%
気圧1021hPa
METAROERK 211700Z 14003KT 7000 SKC 14/M04 Q1021 NOSIG
過去の天気等 Google飛行場航空写真 Wunderground天気予報

過去48時間のMETAR

飛行場予報(TAF)
発表時間: 1/21 20:00 AST (1/21 17:00 UTC)
予報対象時間: 21日21時 AST ~ 23日3時 AST
風向・風速南 7m/s
視程7000m
なし
22日9時 AST ~ 22日11時 AST に徐々に
風向・風速西南西 5m/s
TAF OERK 211700Z 2118/2224 18014KT 7000 NSC
BECMG 2206/2208 24010KT